Time;durP1;ratioP1;P1;durP2;ratioP2;P2;SDS_P1;SDS_P2;PMS_P1;PMS_P2;Temp;Humidity;BMP_temperature;BMP_pressure;BME280_temperature;BME280_humidity;BME280_pressure;Samples;Min_cycle;Max_cycle;Signal;HPM_P1;HPM_P2
2022/05/24 00:01:30;;;;;;;8.40;7.27;;;;;;;;;;4998691;28;20816;-60
2022/05/24 00:03:59;;;;;;;9.27;8.27;;;;;;;;;;5011080;28;21051;-60
2022/05/24 00:06:26;;;;;;;8.23;7.43;;;;;;;;;;5022987;28;20181;-60
2022/05/24 00:08:52;;;;;;;8.70;7.87;;;;;;;;;;4996987;28;20187;-60
2022/05/24 00:11:18;;;;;;;9.67;7.53;;;;;;;;;;5015588;28;20189;-60
2022/05/24 00:13:44;;;;;;;9.27;8.37;;;;;;;;;;5009042;28;20192;-60
2022/05/24 00:16:10;;;;;;;9.50;8.47;;;;;;;;;;5022520;28;20288;-60
2022/05/24 00:18:36;;;;;;;9.23;8.33;;;;;;;;;;5016795;28;20245;-60
2022/05/24 00:21:03;;;;;;;12.47;9.70;;;;;;;;;;5016959;28;20185;-61
2022/05/24 00:23:29;;;;;;;10.70;8.93;;;;;;;;;;5020343;28;20243;-60
2022/05/24 00:25:57;;;;;;;11.00;9.40;;;;;;;;;;5017543;28;20189;-60
2022/05/24 00:28:24;;;;;;;10.13;9.13;;;;;;;;;;5008449;28;20181;-60
2022/05/24 00:30:50;;;;;;;11.50;9.50;;;;;;;;;;5010885;28;20818;-60
2022/05/24 00:33:16;;;;;;;14.53;9.83;;;;;;;;;;5010300;28;20203;-60
2022/05/24 00:35:42;;;;;;;10.77;9.70;;;;;;;;;;5008145;28;20188;-60
2022/05/24 00:38:09;;;;;;;10.00;8.60;;;;;;;;;;5013788;28;20193;-60
2022/05/24 00:40:45;;;;;;;12.30;9.47;;;;;;;;;;5017776;28;20236;-60
2022/05/24 00:43:31;;;;;;;11.00;9.90;;;;;;;;;;5012267;28;20204;-60
2022/05/24 00:46:01;;;;;;;9.70;8.83;;;;;;;;;;5018009;28;21239;-60
2022/05/24 00:48:32;;;;;;;12.20;9.60;;;;;;;;;;5015715;28;20285;-60
2022/05/24 00:50:58;;;;;;;9.43;8.50;;;;;;;;;;5011028;28;20211;-60
2022/05/24 00:53:27;;;;;;;9.70;8.77;;;;;;;;;;5017350;28;20192;-59
2022/05/24 00:56:00;;;;;;;10.23;9.20;;;;;;;;;;5021530;28;20197;-60
2022/05/24 00:58:43;;;;;;;12.10;9.37;;;;;;;;;;4997168;28;20197;-60
2022/05/24 01:01:14;;;;;;;10.40;9.30;;;;;;;;;;4983463;28;20195;-60
2022/05/24 01:03:40;;;;;;;10.50;9.60;;;;;;;;;;4999993;28;20250;-60
2022/05/24 01:06:06;;;;;;;10.03;8.60;;;;;;;;;;5027515;28;20319;-60
2022/05/24 01:08:32;;;;;;;9.77;8.83;;;;;;;;;;5012879;28;20630;-60
2022/05/24 01:10:58;;;;;;;9.80;8.80;;;;;;;;;;5013370;28;20196;-60
2022/05/24 01:13:25;;;;;;;10.30;9.30;;;;;;;;;;4990523;28;20612;-60
2022/05/24 01:15:51;;;;;;;10.03;9.03;;;;;;;;;;5016047;28;20189;-60
2022/05/24 01:18:17;;;;;;;10.50;9.40;;;;;;;;;;5028400;28;20263;-60
2022/05/24 01:20:44;;;;;;;10.43;8.87;;;;;;;;;;5012897;28;20192;-60
2022/05/24 01:23:29;;;;;;;10.13;9.13;;;;;;;;;;4987972;28;20225;-60
2022/05/24 01:25:56;;;;;;;12.10;9.47;;;;;;;;;;5014232;28;20188;-60
2022/05/24 01:28:27;;;;;;;9.37;8.40;;;;;;;;;;5013160;28;20617;-60
2022/05/24 01:30:53;;;;;;;9.37;8.33;;;;;;;;;;4988184;28;20223;-59
2022/05/24 01:36:11;;;;;;;10.53;8.20;;;;;;;;;;5016679;28;20187;-60
2022/05/24 01:38:41;;;;;;;11.07;7.90;;;;;;;;;;5015816;28;20185;-60
2022/05/24 01:41:07;;;;;;;8.47;7.57;;;;;;;;;;4996225;28;20292;-60
2022/05/24 01:43:33;;;;;;;8.53;7.73;;;;;;;;;;5017941;28;20212;-60
2022/05/24 01:46:00;;;;;;;11.13;7.07;;;;;;;;;;5006525;28;20223;-60
2022/05/24 01:48:31;;;;;;;8.33;7.40;;;;;;;;;;5019595;28;20188;-59
2022/05/24 01:50:57;;;;;;;10.20;7.27;;;;;;;;;;4991953;28;20201;-60
2022/05/24 01:53:31;;;;;;;9.07;8.10;;;;;;;;;;4984295;28;20185;-60
2022/05/24 01:55:58;;;;;;;7.43;6.70;;;;;;;;;;4989589;28;20199;-60
2022/05/24 01:58:26;;;;;;;9.17;7.50;;;;;;;;;;5021004;28;20193;-59
2022/05/24 02:01:08;;;;;;;9.87;7.13;;;;;;;;;;5014254;28;20195;-59
2022/05/24 02:03:34;;;;;;;11.40;6.60;;;;;;;;;;5004640;28;20223;-59
2022/05/24 02:06:00;;;;;;;7.73;6.03;;;;;;;;;;5011876;28;20705;-59
2022/05/24 02:08:26;;;;;;;9.87;6.33;;;;;;;;;;5018803;28;20185;-59
2022/05/24 02:10:54;;;;;;;9.13;5.90;;;;;;;;;;5022717;28;20789;-59
2022/05/24 02:13:33;;;;;;;8.23;5.60;;;;;;;;;;4993810;28;20196;-59
2022/05/24 02:16:00;;;;;;;7.07;5.20;;;;;;;;;;5011739;28;20194;-59
2022/05/24 02:18:26;;;;;;;7.10;4.90;;;;;;;;;;4991287;28;20198;-62
2022/05/24 02:20:52;;;;;;;7.77;5.40;;;;;;;;;;5020159;28;20192;-60
2022/05/24 02:23:18;;;;;;;6.63;4.60;;;;;;;;;;5022916;28;20939;-60
2022/05/24 02:25:54;;;;;;;4.97;4.20;;;;;;;;;;5016456;28;20190;-59
2022/05/24 02:28:22;;;;;;;5.80;4.23;;;;;;;;;;5010580;28;20192;-60
2022/05/24 02:30:50;;;;;;;4.77;4.37;;;;;;;;;;5009138;28;20330;-60
2022/05/24 02:33:16;;;;;;;6.47;4.27;;;;;;;;;;5013403;28;20869;-60
2022/05/24 02:35:42;;;;;;;7.07;4.27;;;;;;;;;;5010831;28;20208;-59
2022/05/24 02:38:08;;;;;;;4.47;3.37;;;;;;;;;;5012537;28;20556;-60
2022/05/24 02:43:18;;;;;;;6.30;3.67;;;;;;;;;;5007274;28;20230;-60
2022/05/24 02:45:44;;;;;;;6.07;3.53;;;;;;;;;;5019249;28;20185;-60
2022/05/24 02:48:10;;;;;;;4.73;3.30;;;;;;;;;;5027489;28;20185;-60
2022/05/24 02:50:36;;;;;;;5.63;3.23;;;;;;;;;;5012516;28;20173;-60
2022/05/24 02:53:02;;;;;;;6.67;3.70;;;;;;;;;;5015275;28;20547;-60
2022/05/24 02:55:28;;;;;;;7.93;3.77;;;;;;;;;;5011358;28;20189;-60
2022/05/24 02:57:54;;;;;;;4.43;3.40;;;;;;;;;;5008690;28;20181;-60
2022/05/24 03:00:21;;;;;;;6.27;3.23;;;;;;;;;;5015419;28;20223;-61
2022/05/24 03:02:47;;;;;;;7.90;3.63;;;;;;;;;;5015765;28;21612;-59
2022/05/24 03:05:13;;;;;;;4.77;3.30;;;;;;;;;;5014756;28;20204;-59
2022/05/24 03:10:24;;;;;;;5.23;3.80;;;;;;;;;;5025729;28;20358;-60
2022/05/24 03:15:37;;;;;;;5.17;3.90;;;;;;;;;;5013171;28;20215;-60
2022/05/24 03:18:03;;;;;;;6.60;4.33;;;;;;;;;;5021145;28;20665;-60
2022/05/24 03:20:29;;;;;;;8.27;4.10;;;;;;;;;;5022389;28;20189;-60
2022/05/24 03:22:55;;;;;;;6.87;4.27;;;;;;;;;;5015304;28;20231;-60
2022/05/24 03:25:21;;;;;;;4.47;3.93;;;;;;;;;;5021091;28;20181;-60
2022/05/24 03:27:47;;;;;;;6.97;4.60;;;;;;;;;;5011158;28;20192;-60
2022/05/24 03:30:13;;;;;;;8.07;4.90;;;;;;;;;;5006258;28;20187;-60
2022/05/24 03:32:39;;;;;;;5.23;4.00;;;;;;;;;;5014376;28;20184;-60
2022/05/24 03:35:06;;;;;;;6.47;4.00;;;;;;;;;;5011046;28;20192;-59
2022/05/24 03:37:32;;;;;;;5.43;4.03;;;;;;;;;;5001554;28;20196;-60
2022/05/24 03:39:57;;;;;;;7.37;4.00;;;;;;;;;;5010812;28;20254;-60
2022/05/24 03:42:23;;;;;;;8.57;3.90;;;;;;;;;;5010827;28;20359;-60
2022/05/24 03:44:49;;;;;;;7.67;3.77;;;;;;;;;;5015974;28;20520;-59
2022/05/24 03:47:15;;;;;;;6.90;3.93;;;;;;;;;;5014061;28;20193;-60
2022/05/24 03:49:41;;;;;;;6.07;3.63;;;;;;;;;;5005154;28;20680;-60
2022/05/24 03:52:07;;;;;;;7.17;3.67;;;;;;;;;;5013671;28;20200;-60
2022/05/24 03:54:33;;;;;;;7.27;4.73;;;;;;;;;;5008986;28;21527;-59
2022/05/24 03:59:44;;;;;;;5.03;4.00;;;;;;;;;;5018100;28;20217;-59
2022/05/24 04:02:10;;;;;;;6.67;3.83;;;;;;;;;;5012317;28;20216;-59
2022/05/24 04:04:36;;;;;;;5.80;3.90;;;;;;;;;;5003548;28;20221;-59
2022/05/24 04:07:02;;;;;;;6.63;4.03;;;;;;;;;;5017258;28;20642;-60
2022/05/24 04:09:28;;;;;;;7.90;3.70;;;;;;;;;;5020405;28;20193;-60
2022/05/24 04:11:54;;;;;;;5.53;3.50;;;;;;;;;;5018641;28;20217;-60
2022/05/24 04:14:20;;;;;;;4.87;3.70;;;;;;;;;;5013437;28;20230;-59
2022/05/24 04:16:46;;;;;;;8.83;4.53;;;;;;;;;;5011386;28;20223;-60
2022/05/24 04:19:12;;;;;;;6.33;3.50;;;;;;;;;;5015627;28;20185;-59
2022/05/24 04:21:38;;;;;;;5.70;3.73;;;;;;;;;;5012605;28;20192;-59
2022/05/24 04:24:04;;;;;;;5.37;3.60;;;;;;;;;;5009429;28;20208;-59
2022/05/24 04:26:30;;;;;;;5.33;3.40;;;;;;;;;;4976502;28;20277;-59
2022/05/24 04:28:57;;;;;;;6.67;3.60;;;;;;;;;;4978970;28;20189;-59
2022/05/24 04:31:23;;;;;;;5.83;3.70;;;;;;;;;;4997454;28;20192;-59
2022/05/24 04:33:49;;;;;;;5.67;3.63;;;;;;;;;;5008095;28;20180;-59
2022/05/24 04:36:16;;;;;;;6.03;3.33;;;;;;;;;;5009379;28;20640;-60
2022/05/24 04:38:42;;;;;;;3.57;3.23;;;;;;;;;;5007295;28;20188;-60
2022/05/24 04:43:53;;;;;;;7.67;3.63;;;;;;;;;;5004112;28;20244;-61
2022/05/24 04:46:19;;;;;;;6.17;3.20;;;;;;;;;;5001134;28;20814;-60
2022/05/24 04:48:45;;;;;;;4.13;3.37;;;;;;;;;;4998726;28;20193;-59
2022/05/24 04:51:11;;;;;;;6.07;3.70;;;;;;;;;;4998037;28;20193;-59
2022/05/24 04:53:37;;;;;;;5.90;3.40;;;;;;;;;;4992638;28;20229;-59
2022/05/24 04:56:03;;;;;;;6.93;3.20;;;;;;;;;;4989859;28;20212;-59
2022/05/24 04:58:29;;;;;;;5.50;3.50;;;;;;;;;;5007321;28;20234;-60
2022/05/24 05:00:56;;;;;;;5.60;3.00;;;;;;;;;;5000982;28;20641;-60
2022/05/24 05:03:22;;;;;;;4.87;3.03;;;;;;;;;;5005871;28;20212;-59
2022/05/24 05:05:48;;;;;;;5.50;3.30;;;;;;;;;;5011758;28;20830;-60
2022/05/24 05:08:14;;;;;;;5.07;2.90;;;;;;;;;;5005247;28;20189;-59
2022/05/24 05:10:40;;;;;;;4.87;3.00;;;;;;;;;;4980966;28;20208;-59
2022/05/24 05:13:07;;;;;;;9.50;3.63;;;;;;;;;;4996541;28;20243;-59
2022/05/24 05:15:34;;;;;;;5.03;3.27;;;;;;;;;;5002597;28;20368;-59
2022/05/24 05:18:08;;;;;;;5.60;3.10;;;;;;;;;;4987713;28;20299;-60
2022/05/24 05:20:38;;;;;;;4.90;3.37;;;;;;;;;;5006145;28;20199;-59
2022/05/24 05:23:04;;;;;;;5.13;3.50;;;;;;;;;;5012967;28;20209;-59
2022/05/24 05:25:30;;;;;;;10.17;3.57;;;;;;;;;;5000851;28;20196;-59
2022/05/24 05:27:56;;;;;;;7.60;3.07;;;;;;;;;;5013498;28;20177;-59
2022/05/24 05:33:08;;;;;;;7.17;3.20;;;;;;;;;;5014173;28;20583;-58
2022/05/24 05:35:34;;;;;;;5.80;3.17;;;;;;;;;;5020158;28;20193;-59
2022/05/24 05:38:00;;;;;;;5.83;3.27;;;;;;;;;;5024126;28;20747;-59
2022/05/24 05:40:26;;;;;;;4.23;2.83;;;;;;;;;;5025981;28;20192;-58
2022/05/24 05:42:52;;;;;;;6.30;2.83;;;;;;;;;;5023669;28;20553;-59
2022/05/24 05:45:18;;;;;;;6.03;2.80;;;;;;;;;;5016156;28;20183;-58
2022/05/24 05:47:44;;;;;;;4.43;2.90;;;;;;;;;;5010301;28;20276;-59
2022/05/24 05:50:10;;;;;;;3.13;2.83;;;;;;;;;;5015276;28;20188;-59
2022/05/24 05:52:36;;;;;;;4.00;2.60;;;;;;;;;;5019557;28;20224;-58
2022/05/24 05:55:02;;;;;;;4.07;2.43;;;;;;;;;;5011747;28;20243;-59
2022/05/24 05:57:28;;;;;;;3.73;2.73;;;;;;;;;;5014542;28;20678;-60
2022/05/24 05:59:54;;;;;;;6.07;2.50;;;;;;;;;;5010702;28;20191;-59
2022/05/24 06:02:20;;;;;;;4.17;2.33;;;;;;;;;;5015541;28;20239;-59
2022/05/24 06:04:46;;;;;;;4.03;2.50;;;;;;;;;;5008654;28;20217;-59
2022/05/24 06:07:12;;;;;;;6.80;2.70;;;;;;;;;;4999158;28;20193;-59
2022/05/24 06:09:38;;;;;;;3.23;2.40;;;;;;;;;;5009005;28;20184;-60
2022/05/24 06:12:04;;;;;;;2.23;2.07;;;;;;;;;;5025705;28;20657;-59
2022/05/24 06:14:30;;;;;;;4.43;2.50;;;;;;;;;;5018096;28;20238;-59
2022/05/24 06:16:56;;;;;;;3.80;2.37;;;;;;;;;;5016116;28;20268;-58
2022/05/24 06:19:22;;;;;;;2.60;2.17;;;;;;;;;;5021091;28;20269;-59
2022/05/24 06:21:48;;;;;;;6.47;2.00;;;;;;;;;;5015801;28;20208;-60
2022/05/24 06:24:14;;;;;;;2.70;2.00;;;;;;;;;;5017647;28;20219;-60
2022/05/24 06:26:40;;;;;;;4.07;2.40;;;;;;;;;;5022842;28;20196;-59
2022/05/24 06:29:07;;;;;;;3.57;2.00;;;;;;;;;;5021407;28;20177;-59
2022/05/24 06:31:33;;;;;;;2.43;1.80;;;;;;;;;;5026140;28;20555;-59
2022/05/24 06:33:59;;;;;;;5.73;2.40;;;;;;;;;;5016650;28;20213;-59
2022/05/24 06:36:25;;;;;;;3.23;2.43;;;;;;;;;;5027434;28;20288;-59
2022/05/24 06:38:51;;;;;;;3.07;2.27;;;;;;;;;;5023958;28;20618;-60
2022/05/24 06:41:16;;;;;;;3.80;2.20;;;;;;;;;;5021144;28;20236;-59
2022/05/24 06:43:42;;;;;;;3.30;1.90;;;;;;;;;;5026311;28;20244;-59
2022/05/24 06:46:08;;;;;;;2.03;1.87;;;;;;;;;;5020790;28;20538;-59
2022/05/24 06:48:38;;;;;;;5.43;2.30;;;;;;;;;;5028453;28;20601;-59
2022/05/24 06:51:11;;;;;;;2.93;2.00;;;;;;;;;;5024336;28;20185;-59
2022/05/24 06:53:38;;;;;;;4.47;2.17;;;;;;;;;;5015479;28;20185;-60
2022/05/24 06:56:05;;;;;;;6.90;2.30;;;;;;;;;;5018940;28;20185;-60
2022/05/24 06:58:31;;;;;;;1.97;1.73;;;;;;;;;;5023412;28;20581;-59
2022/05/24 07:03:41;;;;;;;3.73;1.80;;;;;;;;;;5008982;28;20476;-59
2022/05/24 07:06:07;;;;;;;3.70;1.90;;;;;;;;;;5017114;28;20235;-60
2022/05/24 07:08:34;;;;;;;3.43;1.80;;;;;;;;;;5014676;28;20296;-59
2022/05/24 07:11:00;;;;;;;4.37;2.00;;;;;;;;;;4988324;28;20202;-60
2022/05/24 07:13:26;;;;;;;5.80;1.77;;;;;;;;;;5016280;28;20197;-59
2022/05/24 07:15:52;;;;;;;6.20;2.00;;;;;;;;;;5031179;28;20611;-60
2022/05/24 07:18:17;;;;;;;6.07;1.90;;;;;;;;;;5029466;28;20651;-60
2022/05/24 07:20:43;;;;;;;4.33;1.97;;;;;;;;;;5018399;28;20196;-59
2022/05/24 07:23:11;;;;;;;3.90;2.17;;;;;;;;;;5016286;28;20678;-60
2022/05/24 07:25:37;;;;;;;2.80;2.20;;;;;;;;;;5027237;28;20184;-59
2022/05/24 07:28:03;;;;;;;1.97;1.80;;;;;;;;;;5026847;28;20190;-60
2022/05/24 07:30:30;;;;;;;3.47;2.00;;;;;;;;;;5025184;28;20350;-60
2022/05/24 07:32:56;;;;;;;3.27;1.90;;;;;;;;;;5025102;28;20216;-60
2022/05/24 07:35:22;;;;;;;4.10;2.30;;;;;;;;;;5027630;28;20223;-60
2022/05/24 07:37:48;;;;;;;3.27;2.10;;;;;;;;;;5026791;28;20205;-60
2022/05/24 07:48:12;;;;;;;5.83;2.83;;;;;;;;;;5018910;28;20638;-60
2022/05/24 07:50:38;;;;;;;3.73;2.10;;;;;;;;;;5026417;28;20177;-60
2022/05/24 07:53:04;;;;;;;3.97;2.30;;;;;;;;;;5015096;28;20194;-60
2022/05/24 07:55:30;;;;;;;5.33;2.17;;;;;;;;;;5030101;28;20232;-61
2022/05/24 07:57:56;;;;;;;3.80;2.10;;;;;;;;;;5021837;28;20717;-60
2022/05/24 08:00:22;;;;;;;3.33;2.03;;;;;;;;;;5018588;28;20833;-60
2022/05/24 08:02:51;;;;;;;5.13;2.50;;;;;;;;;;5015262;28;20216;-60
2022/05/24 08:05:17;;;;;;;4.07;1.90;;;;;;;;;;5007043;28;20696;-60
2022/05/24 08:07:45;;;;;;;2.78;2.20;;;;;;;;;;5014315;28;20189;-60
2022/05/24 08:10:11;;;;;;;4.03;2.50;;;;;;;;;;5023728;28;20561;-61
2022/05/24 08:12:37;;;;;;;2.63;2.20;;;;;;;;;;5018257;28;20193;-60
2022/05/24 08:15:03;;;;;;;4.85;2.45;;;;;;;;;;5015985;28;20724;-60
2022/05/24 08:17:29;;;;;;;3.40;2.20;;;;;;;;;;5027315;28;20197;-62
2022/05/24 08:19:55;;;;;;;4.03;2.20;;;;;;;;;;5016940;28;20246;-60
2022/05/24 08:22:21;;;;;;;2.80;2.20;;;;;;;;;;5021189;28;20676;-60
2022/05/24 08:24:46;;;;;;;4.03;2.40;;;;;;;;;;5018947;28;20215;-60
2022/05/24 08:27:14;;;;;;;3.15;2.40;;;;;;;;;;5021812;28;20225;-61
2022/05/24 08:29:40;;;;;;;3.72;2.00;;;;;;;;;;5022163;28;20181;-61
2022/05/24 08:32:06;;;;;;;4.72;2.38;;;;;;;;;;5019588;28;20185;-61
2022/05/24 08:34:32;;;;;;;2.70;2.45;;;;;;;;;;5028091;28;20219;-61
2022/05/24 08:36:59;;;;;;;4.68;2.53;;;;;;;;;;5017056;28;20291;-60
2022/05/24 08:39:24;;;;;;;2.83;2.55;;;;;;;;;;5019025;28;20200;-60
2022/05/24 08:42:03;;;;;;;2.50;2.30;;;;;;;;;;5018898;28;20612;-61
2022/05/24 08:50:05;;;;;;;3.38;2.20;;;;;;;;;;5020436;28;21039;-61
2022/05/24 08:53:01;;;;;;;3.38;2.10;;;;;;;;;;4999736;28;20189;-60
2022/05/24 08:55:27;;;;;;;2.80;2.35;;;;;;;;;;4999157;28;20213;-61
2022/05/24 08:57:54;;;;;;;6.53;3.00;;;;;;;;;;5012292;28;20189;-61
2022/05/24 09:00:40;;;;;;;4.67;2.40;;;;;;;;;;4999799;28;20690;-61
2022/05/24 09:03:06;;;;;;;4.60;2.50;;;;;;;;;;5013228;28;20286;-61
2022/05/24 09:05:42;;;;;;;4.20;2.25;;;;;;;;;;5016091;28;20740;-61
2022/05/24 09:08:23;;;;;;;2.47;2.20;;;;;;;;;;4995670;28;20188;-61
2022/05/24 09:11:08;;;;;;;4.37;2.53;;;;;;;;;;5015801;28;20199;-61
2022/05/24 09:13:53;;;;;;;3.33;2.50;;;;;;;;;;5017878;28;20697;-60
2022/05/24 09:16:19;;;;;;;2.40;2.20;;;;;;;;;;5026674;28;21861;-61
2022/05/24 09:19:06;;;;;;;6.30;2.60;;;;;;;;;;5017033;28;20686;-62
2022/05/24 09:21:33;;;;;;;2.40;2.20;;;;;;;;;;5020164;28;20195;-61
2022/05/24 09:23:59;;;;;;;2.43;2.23;;;;;;;;;;5002565;28;20547;-61
2022/05/24 09:26:25;;;;;;;4.63;2.60;;;;;;;;;;5014708;28;20201;-62
2022/05/24 09:28:52;;;;;;;2.67;2.28;;;;;;;;;;5016948;28;20192;-61
2022/05/24 09:31:18;;;;;;;2.70;2.40;;;;;;;;;;5020687;28;20684;-59
2022/05/24 09:33:44;;;;;;;3.30;2.70;;;;;;;;;;5017819;28;20294;-59
2022/05/24 09:36:10;;;;;;;4.50;2.25;;;;;;;;;;5027089;28;20650;-58
2022/05/24 09:38:37;;;;;;;3.97;2.20;;;;;;;;;;5023128;28;20238;-59
2022/05/24 09:41:16;;;;;;;3.50;2.42;;;;;;;;;;5023179;28;20233;-58
2022/05/24 09:43:42;;;;;;;2.30;2.10;;;;;;;;;;5026993;28;20208;-59
2022/05/24 09:46:17;;;;;;;2.55;2.35;;;;;;;;;;5029314;28;20199;-59
2022/05/24 09:49:16;;;;;;;4.03;2.60;;;;;;;;;;4999878;28;20189;-59
2022/05/24 09:51:42;;;;;;;2.75;2.50;;;;;;;;;;4999746;28;20189;-58
2022/05/24 09:54:16;;;;;;;2.92;2.15;;;;;;;;;;5002549;28;20179;-58
2022/05/24 09:56:42;;;;;;;2.00;1.90;;;;;;;;;;5028462;28;20299;-58
2022/05/24 09:59:19;;;;;;;2.72;2.35;;;;;;;;;;5032015;28;20243;-58
2022/05/24 10:01:48;;;;;;;3.17;2.25;;;;;;;;;;5032224;28;20188;-58
2022/05/24 10:04:16;;;;;;;5.45;2.30;;;;;;;;;;5022116;28;20225;-59
2022/05/24 10:06:43;;;;;;;2.25;2.05;;;;;;;;;;5029200;28;20733;-58
2022/05/24 10:09:09;;;;;;;2.35;2.15;;;;;;;;;;5024859;28;20260;-59
2022/05/24 10:11:43;;;;;;;2.40;2.03;;;;;;;;;;5025287;28;20245;-59
2022/05/24 10:14:09;;;;;;;2.10;2.00;;;;;;;;;;5020757;28;20613;-59
2022/05/24 10:16:41;;;;;;;3.22;2.28;;;;;;;;;;5027432;28;20235;-59
2022/05/24 10:19:22;;;;;;;2.70;2.20;;;;;;;;;;5006668;28;20242;-60
2022/05/24 10:22:04;;;;;;;2.47;1.88;;;;;;;;;;5028203;28;20651;-60
2022/05/24 10:24:40;;;;;;;3.33;2.30;;;;;;;;;;5024428;28;21354;-58
2022/05/24 10:27:13;;;;;;;2.38;1.92;;;;;;;;;;5001061;28;20190;-58
2022/05/24 10:29:58;;;;;;;1.90;1.80;;;;;;;;;;5005419;28;20724;-58
2022/05/24 10:38:42;;;;;;;3.40;2.08;;;;;;;;;;5027891;28;20184;-59
2022/05/24 10:41:09;;;;;;;4.15;2.30;;;;;;;;;;4999726;28;20234;-57
2022/05/24 10:43:41;;;;;;;4.68;2.20;;;;;;;;;;5006600;28;20263;-60
2022/05/24 10:46:09;;;;;;;2.65;2.45;;;;;;;;;;5000145;28;20177;-59
2022/05/24 10:48:49;;;;;;;2.88;2.40;;;;;;;;;;5003062;28;20188;-59
2022/05/24 10:51:28;;;;;;;3.00;2.38;;;;;;;;;;5010005;28;20243;-59
2022/05/24 10:54:01;;;;;;;2.95;2.40;;;;;;;;;;5027067;28;20189;-59
2022/05/24 10:56:27;;;;;;;3.28;2.60;;;;;;;;;;5019746;28;20187;-59
2022/05/24 10:58:53;;;;;;;4.57;2.50;;;;;;;;;;5030471;28;20188;-60
2022/05/24 11:01:26;;;;;;;3.00;2.65;;;;;;;;;;5001994;28;20220;-60
2022/05/24 11:03:53;;;;;;;2.40;2.20;;;;;;;;;;5017934;28;20748;-60
2022/05/24 11:06:19;;;;;;;1.98;1.80;;;;;;;;;;5032585;28;20188;-60
2022/05/24 11:09:04;;;;;;;2.70;1.83;;;;;;;;;;5030347;28;20215;-60
2022/05/24 11:11:37;;;;;;;2.42;2.00;;;;;;;;;;5031234;28;20196;-60
2022/05/24 11:14:04;;;;;;;2.72;2.00;;;;;;;;;;5001899;28;20184;-60
2022/05/24 11:16:38;;;;;;;2.55;1.83;;;;;;;;;;5026493;28;20196;-59
2022/05/24 11:19:07;;;;;;;2.30;1.48;;;;;;;;;;5031145;28;20185;-60
2022/05/24 11:21:35;;;;;;;3.55;1.83;;;;;;;;;;5033451;28;20662;-61
2022/05/24 11:24:14;;;;;;;1.80;1.70;;;;;;;;;;5012585;28;20287;-60
2022/05/24 11:26:40;;;;;;;3.00;1.90;;;;;;;;;;5031933;28;20185;-58
2022/05/24 11:29:33;;;;;;;2.25;1.90;;;;;;;;;;5029155;28;20199;-60
2022/05/24 11:32:00;;;;;;;4.72;2.10;;;;;;;;;;5005284;28;20262;-60
2022/05/24 11:34:27;;;;;;;2.05;1.58;;;;;;;;;;5007721;28;20658;-60
2022/05/24 11:37:13;;;;;;;2.33;1.70;;;;;;;;;;5030018;28;20207;-60
2022/05/24 11:39:40;;;;;;;2.38;1.52;;;;;;;;;;5029472;28;20180;-59
2022/05/24 11:42:20;;;;;;;1.98;1.48;;;;;;;;;;5026052;28;20260;-60
2022/05/24 11:44:46;;;;;;;1.60;1.50;;;;;;;;;;5008771;28;20297;-60
2022/05/24 11:47:31;;;;;;;1.48;1.30;;;;;;;;;;5008974;28;20189;-59
2022/05/24 11:49:58;;;;;;;1.77;1.67;;;;;;;;;;5027621;28;20251;-60
2022/05/24 11:52:41;;;;;;;2.45;1.50;;;;;;;;;;5030607;28;20177;-60
2022/05/24 11:55:08;;;;;;;3.08;1.70;;;;;;;;;;5022705;28;20184;-61
2022/05/24 11:57:41;;;;;;;3.67;1.73;;;;;;;;;;5004365;28;20601;-59
2022/05/24 12:00:08;;;;;;;2.05;1.70;;;;;;;;;;5025448;28;20170;-59
2022/05/24 12:07:54;;;;;;;5.20;1.50;;;;;;;;;;5001703;28;20213;-60
2022/05/24 12:08:26;;;;;;;2.15;1.40;;;;;;;;;;5019644;28;20228;-60
2022/05/24 12:10:53;;;;;;;2.85;1.52;;;;;;;;;;5033952;28;20192;-59
2022/05/24 12:13:25;;;;;;;2.35;1.60;;;;;;;;;;5018702;28;20194;-60
2022/05/24 12:15:51;;;;;;;1.95;1.55;;;;;;;;;;5027754;28;20208;-58
2022/05/24 12:18:24;;;;;;;1.95;1.58;;;;;;;;;;4999846;28;20770;-58
2022/05/24 12:20:56;;;;;;;1.60;1.40;;;;;;;;;;5022183;28;20184;-60
2022/05/24 12:23:39;;;;;;;3.40;1.50;;;;;;;;;;4996208;22;20252;-69
2022/05/24 12:26:07;;;;;;;2.42;1.48;;;;;;;;;;4969787;28;20186;-70
2022/05/24 12:28:36;;;;;;;3.47;1.70;;;;;;;;;;4989432;28;20314;-70
2022/05/24 12:31:08;;;;;;;2.03;1.50;;;;;;;;;;4992942;28;20285;-64
2022/05/24 12:33:35;;;;;;;1.63;1.30;;;;;;;;;;4994031;28;20194;-65
2022/05/24 12:36:01;;;;;;;1.35;1.25;;;;;;;;;;4984485;28;21909;-67
2022/05/24 12:38:28;;;;;;;2.38;1.30;;;;;;;;;;4984272;28;20257;-64
2022/05/24 12:41:14;;;;;;;2.80;1.70;;;;;;;;;;4974634;28;20626;-65
2022/05/24 12:43:48;;;;;;;2.75;2.20;;;;;;;;;;4981192;28;20224;-65
2022/05/24 12:46:15;;;;;;;3.85;3.08;;;;;;;;;;4984894;28;21089;-65
2022/05/24 12:48:41;;;;;;;4.35;3.70;;;;;;;;;;4971974;28;20199;-65
2022/05/24 12:51:08;;;;;;;3.65;3.30;;;;;;;;;;4993400;28;20182;-65
2022/05/24 12:53:34;;;;;;;2.90;2.70;;;;;;;;;;4980292;28;21127;-65
2022/05/24 12:56:02;;;;;;;4.15;3.17;;;;;;;;;;4989577;28;20194;-65
2022/05/24 12:58:29;;;;;;;3.83;3.05;;;;;;;;;;4989376;28;20187;-65
2022/05/24 13:01:12;;;;;;;6.75;2.90;;;;;;;;;;4991599;28;20193;-65
2022/05/24 13:03:42;;;;;;;6.43;2.83;;;;;;;;;;4977047;28;20587;-65
2022/05/24 13:06:08;;;;;;;3.15;2.85;;;;;;;;;;4936593;28;20298;-65
2022/05/24 13:08:34;;;;;;;3.80;3.30;;;;;;;;;;4971379;28;20232;-65
2022/05/24 13:11:00;;;;;;;5.05;3.05;;;;;;;;;;4968599;28;20186;-64
2022/05/24 13:13:26;;;;;;;4.88;2.70;;;;;;;;;;4963807;28;20379;-65
2022/05/24 13:15:53;;;;;;;4.03;2.60;;;;;;;;;;4974887;28;20714;-65
2022/05/24 13:18:22;;;;;;;2.65;2.42;;;;;;;;;;4957294;28;20181;-65
2022/05/24 13:20:48;;;;;;;4.53;2.65;;;;;;;;;;4969422;28;20269;-64
2022/05/24 13:23:17;;;;;;;2.85;2.33;;;;;;;;;;4962617;28;20234;-64
2022/05/24 13:25:44;;;;;;;2.38;2.17;;;;;;;;;;4970036;28;20190;-65
2022/05/24 13:28:10;;;;;;;5.53;2.70;;;;;;;;;;4972752;28;20195;-64
2022/05/24 13:33:33;;;;;;;2.47;2.28;;;;;;;;;;4962642;28;20627;-64
2022/05/24 13:36:00;;;;;;;2.55;2.30;;;;;;;;;;4956317;28;20895;-65
2022/05/24 13:38:27;;;;;;;3.15;2.42;;;;;;;;;;4956991;28;20198;-65
2022/05/24 13:40:56;;;;;;;3.92;2.17;;;;;;;;;;4969933;28;20214;-65
2022/05/24 13:43:30;;;;;;;2.95;2.08;;;;;;;;;;4967886;28;20264;-65
2022/05/24 13:46:10;;;;;;;3.92;2.55;;;;;;;;;;4970246;28;20186;-66
2022/05/24 13:48:42;;;;;;;2.85;2.60;;;;;;;;;;4942133;28;20296;-65
2022/05/24 13:51:08;;;;;;;2.40;2.20;;;;;;;;;;4969335;28;20190;-66
2022/05/24 13:53:38;;;;;;;3.43;2.00;;;;;;;;;;4966278;28;20205;-65
2022/05/24 13:56:08;;;;;;;2.27;2.07;;;;;;;;;;4960463;28;20297;-65
2022/05/24 13:58:38;;;;;;;6.77;4.40;;;;;;;;;;4949223;28;20205;-65
2022/05/24 14:01:24;;;;;;;4.83;2.60;;;;;;;;;;4952528;28;20280;-65
2022/05/24 14:03:54;;;;;;;3.17;2.70;;;;;;;;;;4943968;28;20237;-65
2022/05/24 14:06:21;;;;;;;2.20;1.90;;;;;;;;;;4950170;28;20202;-66
2022/05/24 14:08:47;;;;;;;2.55;1.60;;;;;;;;;;4955288;28;20183;-65
2022/05/24 14:11:18;;;;;;;9.77;2.10;;;;;;;;;;4960271;28;20269;-65
2022/05/24 14:13:44;;;;;;;3.65;1.90;;;;;;;;;;4964512;28;20641;-65
2022/05/24 14:16:13;;;;;;;2.65;1.60;;;;;;;;;;4947087;28;20187;-65
2022/05/24 14:18:39;;;;;;;2.53;1.70;;;;;;;;;;4958994;28;20203;-65
2022/05/24 14:21:06;;;;;;;3.72;1.52;;;;;;;;;;4957257;28;20302;-64
2022/05/24 14:23:32;;;;;;;2.42;2.00;;;;;;;;;;4946818;28;20237;-65
2022/05/24 14:25:58;;;;;;;3.45;2.13;;;;;;;;;;4965922;28;20186;-64
2022/05/24 14:28:24;;;;;;;2.20;2.00;;;;;;;;;;4960583;28;20190;-65
2022/05/24 14:30:50;;;;;;;2.65;2.10;;;;;;;;;;4964785;28;20202;-65
2022/05/24 14:33:16;;;;;;;5.10;2.13;;;;;;;;;;4966329;28;20194;-65
2022/05/24 14:35:44;;;;;;;2.42;1.77;;;;;;;;;;4954001;28;20256;-65
2022/05/24 14:38:10;;;;;;;2.97;2.20;;;;;;;;;;4961130;28;20187;-65
2022/05/24 14:40:38;;;;;;;2.00;1.90;;;;;;;;;;4962133;28;20201;-64
2022/05/24 14:43:08;;;;;;;2.70;1.95;;;;;;;;;;4951246;28;20687;-65
2022/05/24 14:45:34;;;;;;;2.25;2.10;;;;;;;;;;4957826;28;20757;-65
2022/05/24 14:48:00;;;;;;;4.63;2.20;;;;;;;;;;4960122;28;20190;-65
2022/05/24 14:50:26;;;;;;;4.95;2.30;;;;;;;;;;4964783;28;20211;-65
2022/05/24 14:52:52;;;;;;;6.50;2.28;;;;;;;;;;4962680;28;20201;-65
2022/05/24 14:55:23;;;;;;;4.38;2.15;;;;;;;;;;4966650;28;20751;-65
2022/05/24 14:57:49;;;;;;;3.65;1.77;;;;;;;;;;4959582;28;20190;-64
2022/05/24 15:00:15;;;;;;;6.53;1.88;;;;;;;;;;4957385;28;20204;-65
2022/05/24 15:02:43;;;;;;;3.17;1.75;;;;;;;;;;4959019;28;20206;-65
2022/05/24 15:05:09;;;;;;;4.88;1.90;;;;;;;;;;4967392;28;20260;-65
2022/05/24 15:15:49;;;;;;;7.15;1.73;;;;;;;;;;4968435;28;20288;-65
2022/05/24 15:18:15;;;;;;;1.60;1.50;;;;;;;;;;4973067;28;20205;-62
2022/05/24 15:20:41;;;;;;;4.43;1.92;;;;;;;;;;4973374;28;20209;-62
2022/05/24 15:23:15;;;;;;;3.87;2.43;;;;;;;;;;4967329;28;20256;-63
2022/05/24 15:26:01;;;;;;;3.63;2.20;;;;;;;;;;4972243;28;20266;-63
2022/05/24 15:28:28;;;;;;;2.70;2.47;;;;;;;;;;4967248;28;20193;-64
2022/05/24 15:30:54;;;;;;;2.83;2.20;;;;;;;;;;4973624;28;20189;-63
2022/05/24 15:33:20;;;;;;;4.53;1.30;;;;;;;;;;4966168;28;20194;-63
2022/05/24 15:35:46;;;;;;;4.00;1.90;;;;;;;;;;4967898;28;20633;-63
2022/05/24 15:38:12;;;;;;;3.93;2.30;;;;;;;;;;4959084;28;20186;-64
2022/05/24 15:40:38;;;;;;;4.77;3.30;;;;;;;;;;4969227;28;20190;-65
2022/05/24 15:43:05;;;;;;;3.10;1.70;;;;;;;;;;4966454;28;20308;-64
2022/05/24 15:45:31;;;;;;;1.70;1.60;;;;;;;;;;4971258;28;20232;-63
2022/05/24 15:47:57;;;;;;;3.40;2.90;;;;;;;;;;4968920;28;22363;-63